sensor_id;sensor_type;location;lat;lon;timestamp;temperature;humidity
37340;DHT22;23223;51.006;7.610;2023-12-29T00:00:26;8.70;99.90
37340;DHT22;23223;51.006;7.610;2023-12-29T00:02:51;8.70;99.90
37340;DHT22;23223;51.006;7.610;2023-12-29T00:05:17;8.70;99.90
37340;DHT22;23223;51.006;7.610;2023-12-29T00:07:42;8.70;99.90
37340;DHT22;23223;51.006;7.610;2023-12-29T00:10:08;8.70;99.90
37340;DHT22;23223;51.006;7.610;2023-12-29T00:12:34;8.70;99.90
37340;DHT22;23223;51.006;7.610;2023-12-29T00:14:59;8.70;99.90
37340;DHT22;23223;51.006;7.610;2023-12-29T00:17:25;8.70;99.90
37340;DHT22;23223;51.006;7.610;2023-12-29T00:19:51;8.70;99.90
37340;DHT22;23223;51.006;7.610;2023-12-29T00:22:16;8.70;99.90
37340;DHT22;23223;51.006;7.610;2023-12-29T00:24:42;8.70;99.90
37340;DHT22;23223;51.006;7.610;2023-12-29T00:27:07;8.70;99.90
37340;DHT22;23223;51.006;7.610;2023-12-29T00:29:34;8.70;99.90
37340;DHT22;23223;51.006;7.610;2023-12-29T00:31:59;8.80;99.90
37340;DHT22;23223;51.006;7.610;2023-12-29T00:34:28;8.70;99.90
37340;DHT22;23223;51.006;7.610;2023-12-29T00:36:53;8.70;99.90
37340;DHT22;23223;51.006;7.610;2023-12-29T00:39:19;8.70;99.90
37340;DHT22;23223;51.006;7.610;2023-12-29T00:41:51;8.80;99.90
37340;DHT22;23223;51.006;7.610;2023-12-29T00:44:17;8.70;99.90
37340;DHT22;23223;51.006;7.610;2023-12-29T00:46:42;8.70;99.90
37340;DHT22;23223;51.006;7.610;2023-12-29T00:49:08;8.80;99.90
37340;DHT22;23223;51.006;7.610;2023-12-29T00:51:39;8.70;99.90
37340;DHT22;23223;51.006;7.610;2023-12-29T00:54:06;8.80;99.90
37340;DHT22;23223;51.006;7.610;2023-12-29T00:56:32;8.70;99.90
37340;DHT22;23223;51.006;7.610;2023-12-29T00:58:57;8.70;99.90
37340;DHT22;23223;51.006;7.610;2023-12-29T01:01:23;8.70;99.90
37340;DHT22;23223;51.006;7.610;2023-12-29T01:03:48;8.80;99.90
37340;DHT22;23223;51.006;7.610;2023-12-29T01:06:14;8.70;99.90
37340;DHT22;23223;51.006;7.610;2023-12-29T01:08:40;8.70;99.90
37340;DHT22;23223;51.006;7.610;2023-12-29T01:11:05;8.80;99.90
37340;DHT22;23223;51.006;7.610;2023-12-29T01:13:31;8.80;99.90
37340;DHT22;23223;51.006;7.610;2023-12-29T01:15:57;8.80;99.90
37340;DHT22;23223;51.006;7.610;2023-12-29T01:18:22;8.80;99.90
37340;DHT22;23223;51.006;7.610;2023-12-29T01:20:48;8.80;99.90
37340;DHT22;23223;51.006;7.610;2023-12-29T01:23:14;8.80;99.90
37340;DHT22;23223;51.006;7.610;2023-12-29T01:25:39;8.80;99.90
37340;DHT22;23223;51.006;7.610;2023-12-29T01:28:05;8.80;99.90
37340;DHT22;23223;51.006;7.610;2023-12-29T01:30:30;8.80;99.90
37340;DHT22;23223;51.006;7.610;2023-12-29T01:32:56;8.80;99.90
37340;DHT22;23223;51.006;7.610;2023-12-29T01:35:22;8.80;99.90
37340;DHT22;23223;51.006;7.610;2023-12-29T01:37:49;8.90;99.90
37340;DHT22;23223;51.006;7.610;2023-12-29T01:40:15;8.90;99.90
37340;DHT22;23223;51.006;7.610;2023-12-29T01:42:41;8.90;99.90
37340;DHT22;23223;51.006;7.610;2023-12-29T01:45:20;8.90;99.90
37340;DHT22;23223;51.006;7.610;2023-12-29T01:47:46;8.90;99.90
37340;DHT22;23223;51.006;7.610;2023-12-29T01:50:12;8.90;99.90
37340;DHT22;23223;51.006;7.610;2023-12-29T01:52:38;8.90;99.90
37340;DHT22;23223;51.006;7.610;2023-12-29T01:55:04;8.90;99.90
37340;DHT22;23223;51.006;7.610;2023-12-29T01:57:30;8.90;99.90
37340;DHT22;23223;51.006;7.610;2023-12-29T02:00:00;8.90;99.90
37340;DHT22;23223;51.006;7.610;2023-12-29T02:02:26;8.90;99.90
37340;DHT22;23223;51.006;7.610;2023-12-29T02:04:52;9.00;99.90
37340;DHT22;23223;51.006;7.610;2023-12-29T02:07:18;8.90;99.90
37340;DHT22;23223;51.006;7.610;2023-12-29T02:09:45;8.90;99.90
37340;DHT22;23223;51.006;7.610;2023-12-29T02:12:11;9.00;99.90
37340;DHT22;23223;51.006;7.610;2023-12-29T02:14:37;9.00;99.90
37340;DHT22;23223;51.006;7.610;2023-12-29T02:17:17;9.00;99.90
37340;DHT22;23223;51.006;7.610;2023-12-29T02:19:47;9.00;99.90
37340;DHT22;23223;51.006;7.610;2023-12-29T02:22:15;9.00;99.90
37340;DHT22;23223;51.006;7.610;2023-12-29T02:24:48;8.90;99.90
37340;DHT22;23223;51.006;7.610;2023-12-29T02:27:45;8.90;99.90
37340;DHT22;23223;51.006;7.610;2023-12-29T02:33:07;8.90;99.90
37340;DHT22;23223;51.006;7.610;2023-12-29T02:35:38;9.00;99.90
37340;DHT22;23223;51.006;7.610;2023-12-29T02:38:04;9.00;99.90
37340;DHT22;23223;51.006;7.610;2023-12-29T02:40:30;9.00;99.90
37340;DHT22;23223;51.006;7.610;2023-12-29T02:42:56;8.90;99.90
37340;DHT22;23223;51.006;7.610;2023-12-29T02:45:21;9.00;99.90
37340;DHT22;23223;51.006;7.610;2023-12-29T02:47:48;9.00;99.90
37340;DHT22;23223;51.006;7.610;2023-12-29T02:50:14;9.00;99.90
37340;DHT22;23223;51.006;7.610;2023-12-29T02:52:40;9.00;99.90
37340;DHT22;23223;51.006;7.610;2023-12-29T02:55:05;9.00;99.90
37340;DHT22;23223;51.006;7.610;2023-12-29T02:57:31;9.00;99.90
37340;DHT22;23223;51.006;7.610;2023-12-29T02:59:57;9.00;99.90
37340;DHT22;23223;51.006;7.610;2023-12-29T03:02:23;9.00;99.90
37340;DHT22;23223;51.006;7.610;2023-12-29T03:04:49;9.00;99.90
37340;DHT22;23223;51.006;7.610;2023-12-29T03:07:14;9.00;99.90
37340;DHT22;23223;51.006;7.610;2023-12-29T03:09:40;9.00;99.90
37340;DHT22;23223;51.006;7.610;2023-12-29T03:12:06;8.90;99.90
37340;DHT22;23223;51.006;7.610;2023-12-29T03:14:32;8.90;99.90
37340;DHT22;23223;51.006;7.610;2023-12-29T03:16:58;8.90;99.90
37340;DHT22;23223;51.006;7.610;2023-12-29T03:19:24;8.80;99.90
37340;DHT22;23223;51.006;7.610;2023-12-29T03:21:49;8.90;99.90
37340;DHT22;23223;51.006;7.610;2023-12-29T03:24:15;8.90;99.90
37340;DHT22;23223;51.006;7.610;2023-12-29T03:26:41;8.90;99.90
37340;DHT22;23223;51.006;7.610;2023-12-29T03:29:07;8.90;99.90
37340;DHT22;23223;51.006;7.610;2023-12-29T03:31:32;8.90;99.90
37340;DHT22;23223;51.006;7.610;2023-12-29T03:33:58;8.80;99.90
37340;DHT22;23223;51.006;7.610;2023-12-29T03:36:23;8.80;99.90
37340;DHT22;23223;51.006;7.610;2023-12-29T03:38:49;8.90;99.90
37340;DHT22;23223;51.006;7.610;2023-12-29T03:41:15;8.90;99.90
37340;DHT22;23223;51.006;7.610;2023-12-29T03:43:40;8.90;99.90
37340;DHT22;23223;51.006;7.610;2023-12-29T03:46:19;8.90;99.90
37340;DHT22;23223;51.006;7.610;2023-12-29T03:48:45;8.90;99.90
37340;DHT22;23223;51.006;7.610;2023-12-29T03:51:10;9.00;99.90
37340;DHT22;23223;51.006;7.610;2023-12-29T03:53:36;8.90;99.90
37340;DHT22;23223;51.006;7.610;2023-12-29T03:56:07;8.90;99.90
37340;DHT22;23223;51.006;7.610;2023-12-29T03:58:32;8.90;99.90
37340;DHT22;23223;51.006;7.610;2023-12-29T04:00:58;9.00;99.90
37340;DHT22;23223;51.006;7.610;2023-12-29T04:03:23;9.00;99.90
37340;DHT22;23223;51.006;7.610;2023-12-29T04:05:49;8.90;99.90
37340;DHT22;23223;51.006;7.610;2023-12-29T04:08:14;9.00;99.90
37340;DHT22;23223;51.006;7.610;2023-12-29T04:10:40;9.00;99.90
37340;DHT22;23223;51.006;7.610;2023-12-29T04:13:06;9.00;99.90
37340;DHT22;23223;51.006;7.610;2023-12-29T04:15:31;9.00;99.90
37340;DHT22;23223;51.006;7.610;2023-12-29T04:17:57;9.10;99.90
37340;DHT22;23223;51.006;7.610;2023-12-29T04:20:23;9.00;99.90
37340;DHT22;23223;51.006;7.610;2023-12-29T04:22:49;9.00;99.90
37340;DHT22;23223;51.006;7.610;2023-12-29T04:25:15;9.00;99.90
37340;DHT22;23223;51.006;7.610;2023-12-29T04:27:41;9.00;99.90
37340;DHT22;23223;51.006;7.610;2023-12-29T04:30:07;9.00;99.90
37340;DHT22;23223;51.006;7.610;2023-12-29T04:32:33;9.00;99.90
37340;DHT22;23223;51.006;7.610;2023-12-29T04:34:58;9.10;99.90
37340;DHT22;23223;51.006;7.610;2023-12-29T04:37:24;9.10;99.90
37340;DHT22;23223;51.006;7.610;2023-12-29T04:39:50;9.10;99.90
37340;DHT22;23223;51.006;7.610;2023-12-29T04:42:15;9.10;99.90
37340;DHT22;23223;51.006;7.610;2023-12-29T04:44:43;9.10;99.90
37340;DHT22;23223;51.006;7.610;2023-12-29T04:47:09;9.10;99.90
37340;DHT22;23223;51.006;7.610;2023-12-29T04:49:34;9.10;99.90
37340;DHT22;23223;51.006;7.610;2023-12-29T04:52:00;9.10;99.90
37340;DHT22;23223;51.006;7.610;2023-12-29T04:54:25;9.10;99.90
37340;DHT22;23223;51.006;7.610;2023-12-29T04:56:51;9.10;99.90
37340;DHT22;23223;51.006;7.610;2023-12-29T04:59:17;9.20;99.90
37340;DHT22;23223;51.006;7.610;2023-12-29T05:01:43;9.20;99.90
37340;DHT22;23223;51.006;7.610;2023-12-29T05:04:08;9.20;99.90
37340;DHT22;23223;51.006;7.610;2023-12-29T05:06:34;9.20;99.90
37340;DHT22;23223;51.006;7.610;2023-12-29T05:08:59;9.10;99.90
37340;DHT22;23223;51.006;7.610;2023-12-29T05:11:25;9.20;99.90
37340;DHT22;23223;51.006;7.610;2023-12-29T05:13:50;9.10;99.90
37340;DHT22;23223;51.006;7.610;2023-12-29T05:16:16;9.10;99.90
37340;DHT22;23223;51.006;7.610;2023-12-29T05:18:42;9.20;99.90
37340;DHT22;23223;51.006;7.610;2023-12-29T05:21:17;9.10;99.90
37340;DHT22;23223;51.006;7.610;2023-12-29T05:23:44;9.10;99.90
37340;DHT22;23223;51.006;7.610;2023-12-29T05:26:11;9.10;99.90
37340;DHT22;23223;51.006;7.610;2023-12-29T05:28:37;9.10;99.90
37340;DHT22;23223;51.006;7.610;2023-12-29T05:31:03;9.20;99.90
37340;DHT22;23223;51.006;7.610;2023-12-29T05:33:30;9.10;99.90
37340;DHT22;23223;51.006;7.610;2023-12-29T05:35:56;9.10;99.90
37340;DHT22;23223;51.006;7.610;2023-12-29T05:38:22;9.10;99.90
37340;DHT22;23223;51.006;7.610;2023-12-29T05:40:48;9.00;99.90
37340;DHT22;23223;51.006;7.610;2023-12-29T05:43:15;9.00;99.90
37340;DHT22;23223;51.006;7.610;2023-12-29T05:45:40;9.00;99.90
37340;DHT22;23223;51.006;7.610;2023-12-29T05:48:06;9.00;99.90
37340;DHT22;23223;51.006;7.610;2023-12-29T05:50:32;8.90;99.90
37340;DHT22;23223;51.006;7.610;2023-12-29T05:52:57;8.80;99.90
37340;DHT22;23223;51.006;7.610;2023-12-29T05:55:23;8.80;99.90
37340;DHT22;23223;51.006;7.610;2023-12-29T05:57:49;8.80;99.90
37340;DHT22;23223;51.006;7.610;2023-12-29T06:00:14;8.80;99.90
37340;DHT22;23223;51.006;7.610;2023-12-29T06:02:41;8.70;99.90
37340;DHT22;23223;51.006;7.610;2023-12-29T06:05:07;8.70;99.90
37340;DHT22;23223;51.006;7.610;2023-12-29T06:07:34;8.70;99.90
37340;DHT22;23223;51.006;7.610;2023-12-29T06:09:59;8.70;99.90
37340;DHT22;23223;51.006;7.610;2023-12-29T06:12:25;8.70;99.90
37340;DHT22;23223;51.006;7.610;2023-12-29T06:14:50;8.70;99.90
37340;DHT22;23223;51.006;7.610;2023-12-29T06:17:16;8.70;99.90
37340;DHT22;23223;51.006;7.610;2023-12-29T06:19:41;8.70;99.90
37340;DHT22;23223;51.006;7.610;2023-12-29T06:22:07;8.80;99.90
37340;DHT22;23223;51.006;7.610;2023-12-29T06:24:37;8.80;99.90
37340;DHT22;23223;51.006;7.610;2023-12-29T06:27:03;8.80;99.90
37340;DHT22;23223;51.006;7.610;2023-12-29T06:29:29;8.70;99.90
37340;DHT22;23223;51.006;7.610;2023-12-29T06:31:54;8.70;99.90
37340;DHT22;23223;51.006;7.610;2023-12-29T06:34:20;8.70;99.90
37340;DHT22;23223;51.006;7.610;2023-12-29T06:36:46;8.70;99.90
37340;DHT22;23223;51.006;7.610;2023-12-29T06:39:11;8.70;99.90
37340;DHT22;23223;51.006;7.610;2023-12-29T06:41:37;8.70;99.90
37340;DHT22;23223;51.006;7.610;2023-12-29T06:44:02;8.70;99.90
37340;DHT22;23223;51.006;7.610;2023-12-29T06:46:28;8.80;99.90
37340;DHT22;23223;51.006;7.610;2023-12-29T06:48:54;8.80;99.90
37340;DHT22;23223;51.006;7.610;2023-12-29T06:51:20;8.80;99.90
37340;DHT22;23223;51.006;7.610;2023-12-29T06:53:48;8.80;99.90
37340;DHT22;23223;51.006;7.610;2023-12-29T06:56:15;8.80;99.90
37340;DHT22;23223;51.006;7.610;2023-12-29T06:58:41;8.80;99.90
37340;DHT22;23223;51.006;7.610;2023-12-29T07:01:07;8.80;99.90
37340;DHT22;23223;51.006;7.610;2023-12-29T07:03:32;8.70;99.90
37340;DHT22;23223;51.006;7.610;2023-12-29T07:06:01;8.80;99.90
37340;DHT22;23223;51.006;7.610;2023-12-29T07:08:27;8.80;99.90
37340;DHT22;23223;51.006;7.610;2023-12-29T07:10:53;8.80;99.90
37340;DHT22;23223;51.006;7.610;2023-12-29T07:13:18;8.80;99.90
37340;DHT22;23223;51.006;7.610;2023-12-29T07:15:46;8.80;99.90
37340;DHT22;23223;51.006;7.610;2023-12-29T07:18:11;8.80;99.90
37340;DHT22;23223;51.006;7.610;2023-12-29T07:20:37;8.90;99.90
37340;DHT22;23223;51.006;7.610;2023-12-29T07:23:02;8.90;99.90
37340;DHT22;23223;51.006;7.610;2023-12-29T07:25:28;8.90;99.90
37340;DHT22;23223;51.006;7.610;2023-12-29T07:27:54;8.80;99.90
37340;DHT22;23223;51.006;7.610;2023-12-29T07:30:19;8.90;99.90
37340;DHT22;23223;51.006;7.610;2023-12-29T07:32:45;8.90;99.90
37340;DHT22;23223;51.006;7.610;2023-12-29T07:35:10;8.90;99.90
37340;DHT22;23223;51.006;7.610;2023-12-29T07:37:36;8.90;99.90
37340;DHT22;23223;51.006;7.610;2023-12-29T07:40:02;8.90;99.90
37340;DHT22;23223;51.006;7.610;2023-12-29T07:42:29;8.90;99.90
37340;DHT22;23223;51.006;7.610;2023-12-29T07:44:54;8.90;99.90
37340;DHT22;23223;51.006;7.610;2023-12-29T07:47:21;8.90;99.90
37340;DHT22;23223;51.006;7.610;2023-12-29T07:49:47;8.90;99.90
37340;DHT22;23223;51.006;7.610;2023-12-29T07:52:13;8.90;99.90
37340;DHT22;23223;51.006;7.610;2023-12-29T07:54:38;8.90;99.90
37340;DHT22;23223;51.006;7.610;2023-12-29T07:57:04;9.00;99.90
37340;DHT22;23223;51.006;7.610;2023-12-29T07:59:30;9.00;99.90
37340;DHT22;23223;51.006;7.610;2023-12-29T08:01:55;9.00;99.90
37340;DHT22;23223;51.006;7.610;2023-12-29T08:04:23;9.00;99.90
37340;DHT22;23223;51.006;7.610;2023-12-29T08:06:49;9.00;99.90
37340;DHT22;23223;51.006;7.610;2023-12-29T08:09:14;9.00;99.90
37340;DHT22;23223;51.006;7.610;2023-12-29T08:11:40;9.00;99.90
37340;DHT22;23223;51.006;7.610;2023-12-29T08:14:08;9.00;99.90
37340;DHT22;23223;51.006;7.610;2023-12-29T08:16:38;9.00;99.90
37340;DHT22;23223;51.006;7.610;2023-12-29T08:19:04;9.00;99.90
37340;DHT22;23223;51.006;7.610;2023-12-29T08:21:30;9.00;99.90
37340;DHT22;23223;51.006;7.610;2023-12-29T08:23:56;9.00;99.90
37340;DHT22;23223;51.006;7.610;2023-12-29T08:26:21;9.00;99.90
37340;DHT22;23223;51.006;7.610;2023-12-29T08:28:47;9.00;99.90
37340;DHT22;23223;51.006;7.610;2023-12-29T08:31:14;9.00;99.90
37340;DHT22;23223;51.006;7.610;2023-12-29T08:33:39;8.90;99.90
37340;DHT22;23223;51.006;7.610;2023-12-29T08:36:05;8.80;99.90
37340;DHT22;23223;51.006;7.610;2023-12-29T08:38:32;8.80;99.90
37340;DHT22;23223;51.006;7.610;2023-12-29T08:40:58;8.80;99.90
37340;DHT22;23223;51.006;7.610;2023-12-29T08:43:24;8.70;99.90
37340;DHT22;23223;51.006;7.610;2023-12-29T08:45:50;8.70;99.90
37340;DHT22;23223;51.006;7.610;2023-12-29T08:48:16;8.70;99.90
37340;DHT22;23223;51.006;7.610;2023-12-29T08:50:42;8.70;99.90
37340;DHT22;23223;51.006;7.610;2023-12-29T08:53:11;8.70;99.90
37340;DHT22;23223;51.006;7.610;2023-12-29T08:55:37;8.70;99.90
37340;DHT22;23223;51.006;7.610;2023-12-29T08:58:05;8.70;99.90
37340;DHT22;23223;51.006;7.610;2023-12-29T09:00:31;8.70;99.90
37340;DHT22;23223;51.006;7.610;2023-12-29T09:02:57;8.70;99.90
37340;DHT22;23223;51.006;7.610;2023-12-29T09:05:23;8.80;99.90
37340;DHT22;23223;51.006;7.610;2023-12-29T09:07:48;8.80;99.90
37340;DHT22;23223;51.006;7.610;2023-12-29T09:10:14;8.90;99.90
37340;DHT22;23223;51.006;7.610;2023-12-29T09:12:40;8.90;99.90
37340;DHT22;23223;51.006;7.610;2023-12-29T09:15:06;8.90;99.90
37340;DHT22;23223;51.006;7.610;2023-12-29T09:17:33;8.90;99.90
37340;DHT22;23223;51.006;7.610;2023-12-29T09:19:58;8.90;99.90
37340;DHT22;23223;51.006;7.610;2023-12-29T09:22:24;8.90;99.90
37340;DHT22;23223;51.006;7.610;2023-12-29T09:24:50;8.70;99.90
37340;DHT22;23223;51.006;7.610;2023-12-29T09:27:15;8.70;99.90
37340;DHT22;23223;51.006;7.610;2023-12-29T09:29:41;8.60;99.90
37340;DHT22;23223;51.006;7.610;2023-12-29T09:32:07;8.60;99.90
37340;DHT22;23223;51.006;7.610;2023-12-29T09:34:32;8.60;99.90
37340;DHT22;23223;51.006;7.610;2023-12-29T09:36:58;8.60;99.90
37340;DHT22;23223;51.006;7.610;2023-12-29T09:39:23;8.70;99.90
37340;DHT22;23223;51.006;7.610;2023-12-29T09:41:52;8.70;99.90
37340;DHT22;23223;51.006;7.610;2023-12-29T09:44:20;8.70;99.90
37340;DHT22;23223;51.006;7.610;2023-12-29T09:46:50;8.80;99.90
37340;DHT22;23223;51.006;7.610;2023-12-29T09:49:20;8.90;99.90
37340;DHT22;23223;51.006;7.610;2023-12-29T09:51:47;8.90;99.90
37340;DHT22;23223;51.006;7.610;2023-12-29T09:54:13;8.90;99.90
37340;DHT22;23223;51.006;7.610;2023-12-29T09:56:40;8.90;99.90
37340;DHT22;23223;51.006;7.610;2023-12-29T09:59:08;8.80;99.90
37340;DHT22;23223;51.006;7.610;2023-12-29T10:01:36;8.70;99.90
37340;DHT22;23223;51.006;7.610;2023-12-29T10:04:02;8.70;99.90
37340;DHT22;23223;51.006;7.610;2023-12-29T10:06:31;8.70;99.90
37340;DHT22;23223;51.006;7.610;2023-12-29T10:09:00;8.80;99.90
37340;DHT22;23223;51.006;7.610;2023-12-29T10:11:29;8.80;99.90
37340;DHT22;23223;51.006;7.610;2023-12-29T10:13:59;8.80;99.90
37340;DHT22;23223;51.006;7.610;2023-12-29T10:16:35;8.90;99.90
37340;DHT22;23223;51.006;7.610;2023-12-29T10:19:17;8.90;99.90
37340;DHT22;23223;51.006;7.610;2023-12-29T10:22:08;8.90;99.90
37340;DHT22;23223;51.006;7.610;2023-12-29T10:24:36;9.00;99.90
37340;DHT22;23223;51.006;7.610;2023-12-29T10:27:02;9.10;99.90
37340;DHT22;23223;51.006;7.610;2023-12-29T10:29:28;9.10;99.90
37340;DHT22;23223;51.006;7.610;2023-12-29T10:31:54;9.10;99.90
37340;DHT22;23223;51.006;7.610;2023-12-29T10:34:21;9.10;99.90
37340;DHT22;23223;51.006;7.610;2023-12-29T10:36:54;9.00;99.90
37340;DHT22;23223;51.006;7.610;2023-12-29T10:39:20;9.00;99.90
37340;DHT22;23223;51.006;7.610;2023-12-29T10:41:46;9.00;99.90
37340;DHT22;23223;51.006;7.610;2023-12-29T10:44:12;9.00;99.90
37340;DHT22;23223;51.006;7.610;2023-12-29T10:46:37;8.90;99.90
37340;DHT22;23223;51.006;7.610;2023-12-29T10:49:11;8.80;99.90
37340;DHT22;23223;51.006;7.610;2023-12-29T10:51:38;8.90;99.90
37340;DHT22;23223;51.006;7.610;2023-12-29T10:54:04;8.90;99.90
37340;DHT22;23223;51.006;7.610;2023-12-29T10:56:30;9.00;99.90
37340;DHT22;23223;51.006;7.610;2023-12-29T10:59:00;9.10;99.90
37340;DHT22;23223;51.006;7.610;2023-12-29T11:01:28;9.00;99.90
37340;DHT22;23223;51.006;7.610;2023-12-29T11:04:02;9.00;99.90
37340;DHT22;23223;51.006;7.610;2023-12-29T11:06:29;9.00;99.90
37340;DHT22;23223;51.006;7.610;2023-12-29T11:09:00;9.00;99.90
37340;DHT22;23223;51.006;7.610;2023-12-29T11:11:26;9.00;99.90
37340;DHT22;23223;51.006;7.610;2023-12-29T11:13:53;9.10;99.90
37340;DHT22;23223;51.006;7.610;2023-12-29T11:16:20;9.10;99.90
37340;DHT22;23223;51.006;7.610;2023-12-29T11:18:49;9.10;99.90
37340;DHT22;23223;51.006;7.610;2023-12-29T11:21:16;9.20;99.90
37340;DHT22;23223;51.006;7.610;2023-12-29T11:23:42;9.30;99.90
37340;DHT22;23223;51.006;7.610;2023-12-29T11:26:09;9.20;99.90
37340;DHT22;23223;51.006;7.610;2023-12-29T11:28:35;9.20;99.90
37340;DHT22;23223;51.006;7.610;2023-12-29T11:31:01;9.10;99.90
37340;DHT22;23223;51.006;7.610;2023-12-29T11:33:41;9.10;99.90
37340;DHT22;23223;51.006;7.610;2023-12-29T11:36:13;9.00;99.90
37340;DHT22;23223;51.006;7.610;2023-12-29T11:41:40;8.90;99.90
37340;DHT22;23223;51.006;7.610;2023-12-29T11:44:07;8.90;99.90
37340;DHT22;23223;51.006;7.610;2023-12-29T11:46:41;9.00;99.90
37340;DHT22;23223;51.006;7.610;2023-12-29T11:49:09;9.10;99.90
37340;DHT22;23223;51.006;7.610;2023-12-29T11:51:42;9.10;99.90
37340;DHT22;23223;51.006;7.610;2023-12-29T11:54:27;9.20;99.90
37340;DHT22;23223;51.006;7.610;2023-12-29T11:56:54;9.30;99.90
37340;DHT22;23223;51.006;7.610;2023-12-29T11:59:24;9.30;99.90
37340;DHT22;23223;51.006;7.610;2023-12-29T12:01:53;9.20;99.90
37340;DHT22;23223;51.006;7.610;2023-12-29T12:04:42;9.10;99.90
37340;DHT22;23223;51.006;7.610;2023-12-29T12:12:55;9.10;99.90
37340;DHT22;23223;51.006;7.610;2023-12-29T12:17:54;9.20;99.90
37340;DHT22;23223;51.006;7.610;2023-12-29T12:20:20;9.30;99.90
37340;DHT22;23223;51.006;7.610;2023-12-29T12:22:58;9.20;99.90
37340;DHT22;23223;51.006;7.610;2023-12-29T12:25:26;9.20;99.90
37340;DHT22;23223;51.006;7.610;2023-12-29T12:27:55;9.20;99.90
37340;DHT22;23223;51.006;7.610;2023-12-29T12:30:21;9.10;99.90
37340;DHT22;23223;51.006;7.610;2023-12-29T12:32:56;9.20;99.90
37340;DHT22;23223;51.006;7.610;2023-12-29T12:35:22;9.10;99.90
37340;DHT22;23223;51.006;7.610;2023-12-29T12:37:48;9.20;99.90
37340;DHT22;23223;51.006;7.610;2023-12-29T12:40:27;9.20;99.90
37340;DHT22;23223;51.006;7.610;2023-12-29T12:42:52;9.20;99.90
37340;DHT22;23223;51.006;7.610;2023-12-29T12:45:20;9.10;99.90
37340;DHT22;23223;51.006;7.610;2023-12-29T12:47:52;9.10;99.90
37340;DHT22;23223;51.006;7.610;2023-12-29T12:50:20;9.00;99.90
37340;DHT22;23223;51.006;7.610;2023-12-29T12:52:46;9.10;99.90
37340;DHT22;23223;51.006;7.610;2023-12-29T12:55:13;9.00;99.90
37340;DHT22;23223;51.006;7.610;2023-12-29T12:57:40;9.00;99.90
37340;DHT22;23223;51.006;7.610;2023-12-29T13:00:06;8.90;99.90
37340;DHT22;23223;51.006;7.610;2023-12-29T13:02:34;8.90;99.90
37340;DHT22;23223;51.006;7.610;2023-12-29T13:05:02;9.00;99.90
37340;DHT22;23223;51.006;7.610;2023-12-29T13:07:33;9.10;99.90
37340;DHT22;23223;51.006;7.610;2023-12-29T13:10:02;9.20;99.90
37340;DHT22;23223;51.006;7.610;2023-12-29T13:12:29;9.20;99.90
37340;DHT22;23223;51.006;7.610;2023-12-29T13:15:05;9.20;99.90
37340;DHT22;23223;51.006;7.610;2023-12-29T13:17:32;9.20;99.90
37340;DHT22;23223;51.006;7.610;2023-12-29T13:19:58;9.20;99.90
37340;DHT22;23223;51.006;7.610;2023-12-29T13:22:24;9.10;99.90
37340;DHT22;23223;51.006;7.610;2023-12-29T13:24:50;9.10;99.90
37340;DHT22;23223;51.006;7.610;2023-12-29T13:27:15;9.10;99.90
37340;DHT22;23223;51.006;7.610;2023-12-29T13:29:41;9.10;99.90
37340;DHT22;23223;51.006;7.610;2023-12-29T13:37:24;9.10;99.90
37340;DHT22;23223;51.006;7.610;2023-12-29T13:42:27;9.20;99.90
37340;DHT22;23223;51.006;7.610;2023-12-29T13:44:54;9.20;99.90
37340;DHT22;23223;51.006;7.610;2023-12-29T13:47:21;9.10;99.90
37340;DHT22;23223;51.006;7.610;2023-12-29T13:49:47;9.10;99.90
37340;DHT22;23223;51.006;7.610;2023-12-29T13:52:14;9.10;99.90
37340;DHT22;23223;51.006;7.610;2023-12-29T13:54:41;9.00;99.90
37340;DHT22;23223;51.006;7.610;2023-12-29T13:57:13;8.90;99.90
37340;DHT22;23223;51.006;7.610;2023-12-29T13:59:40;9.00;99.90
37340;DHT22;23223;51.006;7.610;2023-12-29T14:02:26;9.00;99.90
37340;DHT22;23223;51.006;7.610;2023-12-29T14:05:18;8.90;99.90
37340;DHT22;23223;51.006;7.610;2023-12-29T14:10:36;8.80;99.90
37340;DHT22;23223;51.006;7.610;2023-12-29T14:13:12;8.90;99.90
37340;DHT22;23223;51.006;7.610;2023-12-29T14:15:44;8.90;99.90
37340;DHT22;23223;51.006;7.610;2023-12-29T14:18:48;8.80;99.90
37340;DHT22;23223;51.006;7.610;2023-12-29T14:21:31;8.90;99.90
37340;DHT22;23223;51.006;7.610;2023-12-29T14:24:13;8.90;99.90
37340;DHT22;23223;51.006;7.610;2023-12-29T14:26:40;8.90;99.90
37340;DHT22;23223;51.006;7.610;2023-12-29T14:29:08;8.90;99.90
37340;DHT22;23223;51.006;7.610;2023-12-29T14:31:44;8.90;99.90
37340;DHT22;23223;51.006;7.610;2023-12-29T14:34:10;8.80;99.90
37340;DHT22;23223;51.006;7.610;2023-12-29T14:36:38;8.70;99.90
37340;DHT22;23223;51.006;7.610;2023-12-29T14:39:04;8.70;99.90
37340;DHT22;23223;51.006;7.610;2023-12-29T14:41:30;8.70;99.90
37340;DHT22;23223;51.006;7.610;2023-12-29T14:43:56;8.70;99.90
37340;DHT22;23223;51.006;7.610;2023-12-29T14:46:22;8.70;99.90
37340;DHT22;23223;51.006;7.610;2023-12-29T14:48:48;8.70;99.90
37340;DHT22;23223;51.006;7.610;2023-12-29T14:51:14;8.60;99.90
37340;DHT22;23223;51.006;7.610;2023-12-29T14:53:43;8.50;99.90
37340;DHT22;23223;51.006;7.610;2023-12-29T14:56:08;8.60;99.90
37340;DHT22;23223;51.006;7.610;2023-12-29T14:58:34;8.50;99.90
37340;DHT22;23223;51.006;7.610;2023-12-29T15:01:02;8.40;99.90
37340;DHT22;23223;51.006;7.610;2023-12-29T15:03:31;8.30;99.90
37340;DHT22;23223;51.006;7.610;2023-12-29T15:06:03;8.30;99.90
37340;DHT22;23223;51.006;7.610;2023-12-29T15:08:28;8.30;99.90
37340;DHT22;23223;51.006;7.610;2023-12-29T15:11:03;8.30;99.90
37340;DHT22;23223;51.006;7.610;2023-12-29T15:13:29;8.30;99.90
37340;DHT22;23223;51.006;7.610;2023-12-29T15:15:59;8.30;99.90
37340;DHT22;23223;51.006;7.610;2023-12-29T15:18:26;8.30;99.90
37340;DHT22;23223;51.006;7.610;2023-12-29T15:20:56;8.30;99.90
37340;DHT22;23223;51.006;7.610;2023-12-29T15:23:22;8.40;99.90
37340;DHT22;23223;51.006;7.610;2023-12-29T15:25:50;8.40;99.90
37340;DHT22;23223;51.006;7.610;2023-12-29T15:28:18;8.40;99.90
37340;DHT22;23223;51.006;7.610;2023-12-29T15:30:45;8.40;99.90
37340;DHT22;23223;51.006;7.610;2023-12-29T15:33:11;8.40;99.90
37340;DHT22;23223;51.006;7.610;2023-12-29T15:35:38;8.40;99.90
37340;DHT22;23223;51.006;7.610;2023-12-29T15:38:04;8.50;99.90
37340;DHT22;23223;51.006;7.610;2023-12-29T15:40:30;8.50;99.90
37340;DHT22;23223;51.006;7.610;2023-12-29T15:42:57;8.50;99.90
37340;DHT22;23223;51.006;7.610;2023-12-29T15:45:23;8.40;99.90
37340;DHT22;23223;51.006;7.610;2023-12-29T15:47:49;8.40;99.90
37340;DHT22;23223;51.006;7.610;2023-12-29T15:50:14;8.40;99.90
37340;DHT22;23223;51.006;7.610;2023-12-29T15:52:40;8.40;99.90
37340;DHT22;23223;51.006;7.610;2023-12-29T15:55:07;8.50;99.90
37340;DHT22;23223;51.006;7.610;2023-12-29T15:57:33;8.50;99.90
37340;DHT22;23223;51.006;7.610;2023-12-29T15:59:58;8.40;99.90
37340;DHT22;23223;51.006;7.610;2023-12-29T16:02:24;8.40;99.90
37340;DHT22;23223;51.006;7.610;2023-12-29T16:04:52;8.30;99.90
37340;DHT22;23223;51.006;7.610;2023-12-29T16:07:17;8.30;99.90
37340;DHT22;23223;51.006;7.610;2023-12-29T16:09:43;8.30;99.90